Weather at Klawock Airport

Public forecast

Using degrees Fahrenheit for public forecast. Weather courtesy of forecast.io.

Current aviation weather report (METAR) for Klawock Airport

Retrieved 2021/09/25 16:45 UTC (1 hour ago):

PAKW 251645Z AUTO 00000KT 10SM SCT002 08/07 A2982 RMK AO2 T00780067 TSNO

Aviation forecast (TAF) for Klawock Airport

Retrieved 2021/09/25 18:33 UTC (0 seconds ago):

TAF PAKW 251730Z 2518/2618 00000KT P6SM VCFG SCT002 SCT060 FM251900 VRB04KT P6SM SCT080 AMD LTD TO CLD VIS AND WIND